sensor_id;sensor_type;location;lat;lon;timestamp;P1;durP1;ratioP1;P2;durP2;ratioP2
79227;SDS011;68658;46.174;11.254;2023-03-24T00:01:55;28.42;;;11.80;;
79227;SDS011;68658;46.174;11.254;2023-03-24T00:04:21;22.25;;;10.18;;
79227;SDS011;68658;46.174;11.254;2023-03-24T00:06:48;24.25;;;10.13;;
79227;SDS011;68658;46.174;11.254;2023-03-24T00:09:15;25.17;;;10.27;;
79227;SDS011;68658;46.174;11.254;2023-03-24T00:11:41;35.33;;;12.30;;
79227;SDS011;68658;46.174;11.254;2023-03-24T00:14:06;27.95;;;10.60;;
79227;SDS011;68658;46.174;11.254;2023-03-24T00:16:36;25.40;;;11.55;;
79227;SDS011;68658;46.174;11.254;2023-03-24T00:19:06;28.70;;;11.35;;
79227;SDS011;68658;46.174;11.254;2023-03-24T00:21:35;29.23;;;10.80;;
79227;SDS011;68658;46.174;11.254;2023-03-24T00:24:02;28.08;;;11.30;;
79227;SDS011;68658;46.174;11.254;2023-03-24T00:26:29;29.55;;;11.30;;
79227;SDS011;68658;46.174;11.254;2023-03-24T00:28:55;25.83;;;10.82;;
79227;SDS011;68658;46.174;11.254;2023-03-24T00:31:21;25.80;;;10.82;;
79227;SDS011;68658;46.174;11.254;2023-03-24T00:33:48;26.05;;;10.60;;
79227;SDS011;68658;46.174;11.254;2023-03-24T00:36:16;23.98;;;10.90;;
79227;SDS011;68658;46.174;11.254;2023-03-24T00:38:46;24.63;;;10.57;;
79227;SDS011;68658;46.174;11.254;2023-03-24T00:41:12;29.77;;;11.60;;
79227;SDS011;68658;46.174;11.254;2023-03-24T00:43:38;26.42;;;10.68;;
79227;SDS011;68658;46.174;11.254;2023-03-24T00:46:05;26.00;;;11.07;;
79227;SDS011;68658;46.174;11.254;2023-03-24T00:48:35;20.40;;;9.18;;
79227;SDS011;68658;46.174;11.254;2023-03-24T00:51:02;23.02;;;9.88;;
79227;SDS011;68658;46.174;11.254;2023-03-24T00:53:29;20.15;;;7.95;;
79227;SDS011;68658;46.174;11.254;2023-03-24T00:55:55;24.05;;;9.18;;
79227;SDS011;68658;46.174;11.254;2023-03-24T00:58:22;24.55;;;10.68;;
79227;SDS011;68658;46.174;11.254;2023-03-24T01:00:49;29.15;;;11.45;;
79227;SDS011;68658;46.174;11.254;2023-03-24T01:03:20;26.65;;;11.73;;
79227;SDS011;68658;46.174;11.254;2023-03-24T01:05:50;27.88;;;11.10;;
79227;SDS011;68658;46.174;11.254;2023-03-24T01:08:17;27.65;;;10.93;;
79227;SDS011;68658;46.174;11.254;2023-03-24T01:10:47;27.05;;;12.30;;
79227;SDS011;68658;46.174;11.254;2023-03-24T01:13:17;28.83;;;11.57;;
79227;SDS011;68658;46.174;11.254;2023-03-24T01:15:44;26.75;;;11.15;;
79227;SDS011;68658;46.174;11.254;2023-03-24T01:18:10;27.08;;;11.35;;
79227;SDS011;68658;46.174;11.254;2023-03-24T01:20:38;26.75;;;11.68;;
79227;SDS011;68658;46.174;11.254;2023-03-24T01:23:06;26.25;;;11.15;;
79227;SDS011;68658;46.174;11.254;2023-03-24T01:25:33;24.30;;;10.80;;
79227;SDS011;68658;46.174;11.254;2023-03-24T01:28:01;22.25;;;10.75;;
79227;SDS011;68658;46.174;11.254;2023-03-24T01:30:28;25.17;;;11.15;;
79227;SDS011;68658;46.174;11.254;2023-03-24T01:32:54;31.00;;;11.05;;
79227;SDS011;68658;46.174;11.254;2023-03-24T01:35:21;28.35;;;11.77;;
79227;SDS011;68658;46.174;11.254;2023-03-24T01:37:49;30.13;;;10.30;;
79227;SDS011;68658;46.174;11.254;2023-03-24T01:40:17;26.23;;;11.30;;
79227;SDS011;68658;46.174;11.254;2023-03-24T01:42:47;27.48;;;10.85;;
79227;SDS011;68658;46.174;11.254;2023-03-24T01:48:04;31.02;;;12.13;;
79227;SDS011;68658;46.174;11.254;2023-03-24T01:50:32;26.65;;;11.15;;
79227;SDS011;68658;46.174;11.254;2023-03-24T01:52:58;23.13;;;9.27;;
79227;SDS011;68658;46.174;11.254;2023-03-24T01:55:24;24.92;;;11.52;;
79227;SDS011;68658;46.174;11.254;2023-03-24T01:57:51;25.58;;;11.32;;
79227;SDS011;68658;46.174;11.254;2023-03-24T02:00:20;22.40;;;9.88;;
79227;SDS011;68658;46.174;11.254;2023-03-24T02:02:49;26.40;;;11.25;;
79227;SDS011;68658;46.174;11.254;2023-03-24T02:05:20;20.35;;;9.30;;
79227;SDS011;68658;46.174;11.254;2023-03-24T02:07:52;23.95;;;9.80;;
79227;SDS011;68658;46.174;11.254;2023-03-24T02:10:26;26.80;;;10.48;;
79227;SDS011;68658;46.174;11.254;2023-03-24T02:12:55;26.80;;;9.60;;
79227;SDS011;68658;46.174;11.254;2023-03-24T02:15:21;22.75;;;9.13;;
79227;SDS011;68658;46.174;11.254;2023-03-24T02:45:40;27.60;;;10.18;;
79227;SDS011;68658;46.174;11.254;2023-03-24T02:54:15;19.63;;;7.50;;
79227;SDS011;68658;46.174;11.254;2023-03-24T02:56:46;19.65;;;7.30;;
79227;SDS011;68658;46.174;11.254;2023-03-24T02:59:30;21.15;;;8.02;;
79227;SDS011;68658;46.174;11.254;2023-03-24T03:02:22;21.50;;;7.68;;
79227;SDS011;68658;46.174;11.254;2023-03-24T03:04:56;20.27;;;7.50;;
79227;SDS011;68658;46.174;11.254;2023-03-24T03:07:28;23.83;;;7.18;;
79227;SDS011;68658;46.174;11.254;2023-03-24T03:10:10;20.50;;;8.45;;
79227;SDS011;68658;46.174;11.254;2023-03-24T03:12:41;20.50;;;8.38;;
79227;SDS011;68658;46.174;11.254;2023-03-24T03:15:11;20.77;;;8.05;;
79227;SDS011;68658;46.174;11.254;2023-03-24T03:17:41;21.95;;;8.30;;
79227;SDS011;68658;46.174;11.254;2023-03-24T03:20:17;23.58;;;9.43;;
79227;SDS011;68658;46.174;11.254;2023-03-24T03:23:04;18.95;;;8.40;;
79227;SDS011;68658;46.174;11.254;2023-03-24T03:25:34;20.83;;;8.30;;
79227;SDS011;68658;46.174;11.254;2023-03-24T03:28:06;15.82;;;6.70;;
79227;SDS011;68658;46.174;11.254;2023-03-24T03:30:36;17.90;;;7.22;;
79227;SDS011;68658;46.174;11.254;2023-03-24T03:33:07;16.40;;;7.03;;
79227;SDS011;68658;46.174;11.254;2023-03-24T03:35:37;19.95;;;8.98;;
79227;SDS011;68658;46.174;11.254;2023-03-24T03:38:15;17.02;;;6.97;;
79227;SDS011;68658;46.174;11.254;2023-03-24T03:40:52;19.80;;;6.63;;
79227;SDS011;68658;46.174;11.254;2023-03-24T03:43:20;18.67;;;7.00;;
79227;SDS011;68658;46.174;11.254;2023-03-24T03:45:46;21.33;;;6.78;;
79227;SDS011;68658;46.174;11.254;2023-03-24T03:48:12;18.40;;;7.38;;
79227;SDS011;68658;46.174;11.254;2023-03-24T03:50:39;16.35;;;5.95;;
79227;SDS011;68658;46.174;11.254;2023-03-24T03:53:08;19.27;;;7.53;;
79227;SDS011;68658;46.174;11.254;2023-03-24T03:55:34;18.52;;;6.32;;
79227;SDS011;68658;46.174;11.254;2023-03-24T03:58:00;17.08;;;5.47;;
79227;SDS011;68658;46.174;11.254;2023-03-24T04:00:27;27.00;;;6.50;;
79227;SDS011;68658;46.174;11.254;2023-03-24T04:08:27;19.55;;;6.20;;
79227;SDS011;68658;46.174;11.254;2023-03-24T04:19:12;17.67;;;7.55;;
79227;SDS011;68658;46.174;11.254;2023-03-24T04:22:23;18.92;;;6.68;;
79227;SDS011;68658;46.174;11.254;2023-03-24T04:24:58;20.52;;;7.53;;
79227;SDS011;68658;46.174;11.254;2023-03-24T04:30:09;18.48;;;7.05;;
79227;SDS011;68658;46.174;11.254;2023-03-24T04:38:11;15.93;;;6.07;;
79227;SDS011;68658;46.174;11.254;2023-03-24T04:40:41;17.60;;;6.65;;
79227;SDS011;68658;46.174;11.254;2023-03-24T04:43:08;15.25;;;6.93;;
79227;SDS011;68658;46.174;11.254;2023-03-24T04:48:04;18.73;;;6.68;;
79227;SDS011;68658;46.174;11.254;2023-03-24T04:53:03;17.02;;;7.55;;
79227;SDS011;68658;46.174;11.254;2023-03-24T04:57:59;17.58;;;6.28;;
79227;SDS011;68658;46.174;11.254;2023-03-24T05:00:26;17.50;;;6.15;;
79227;SDS011;68658;46.174;11.254;2023-03-24T05:02:51;19.50;;;7.72;;
79227;SDS011;68658;46.174;11.254;2023-03-24T05:05:17;23.73;;;8.35;;
79227;SDS011;68658;46.174;11.254;2023-03-24T05:07:43;20.85;;;8.32;;
79227;SDS011;68658;46.174;11.254;2023-03-24T05:10:09;20.05;;;7.85;;
79227;SDS011;68658;46.174;11.254;2023-03-24T05:12:35;17.45;;;6.93;;
79227;SDS011;68658;46.174;11.254;2023-03-24T05:15:01;21.63;;;7.70;;
79227;SDS011;68658;46.174;11.254;2023-03-24T05:17:26;17.83;;;7.15;;
79227;SDS011;68658;46.174;11.254;2023-03-24T05:19:52;14.52;;;5.70;;
79227;SDS011;68658;46.174;11.254;2023-03-24T05:22:17;18.23;;;7.37;;
79227;SDS011;68658;46.174;11.254;2023-03-24T05:24:42;19.10;;;8.25;;
79227;SDS011;68658;46.174;11.254;2023-03-24T05:27:08;20.25;;;8.60;;
79227;SDS011;68658;46.174;11.254;2023-03-24T05:29:33;22.38;;;8.02;;
79227;SDS011;68658;46.174;11.254;2023-03-24T05:31:59;17.00;;;6.45;;
79227;SDS011;68658;46.174;11.254;2023-03-24T05:34:24;13.88;;;6.05;;
79227;SDS011;68658;46.174;11.254;2023-03-24T05:36:50;17.88;;;7.07;;
79227;SDS011;68658;46.174;11.254;2023-03-24T05:39:15;21.13;;;8.30;;
79227;SDS011;68658;46.174;11.254;2023-03-24T05:41:41;20.85;;;8.63;;
79227;SDS011;68658;46.174;11.254;2023-03-24T05:44:06;21.23;;;8.50;;
79227;SDS011;68658;46.174;11.254;2023-03-24T05:46:32;19.80;;;6.57;;
79227;SDS011;68658;46.174;11.254;2023-03-24T05:48:57;18.17;;;6.45;;
79227;SDS011;68658;46.174;11.254;2023-03-24T05:51:23;15.73;;;5.43;;
79227;SDS011;68658;46.174;11.254;2023-03-24T05:53:49;22.67;;;7.30;;
79227;SDS011;68658;46.174;11.254;2023-03-24T05:56:16;21.30;;;6.88;;
79227;SDS011;68658;46.174;11.254;2023-03-24T05:58:41;16.42;;;7.15;;
79227;SDS011;68658;46.174;11.254;2023-03-24T06:01:09;19.30;;;5.95;;
79227;SDS011;68658;46.174;11.254;2023-03-24T06:03:35;18.48;;;7.25;;
79227;SDS011;68658;46.174;11.254;2023-03-24T06:06:04;14.30;;;5.85;;
79227;SDS011;68658;46.174;11.254;2023-03-24T06:11:02;13.82;;;5.78;;
79227;SDS011;68658;46.174;11.254;2023-03-24T06:13:29;15.10;;;6.03;;
79227;SDS011;68658;46.174;11.254;2023-03-24T06:15:56;16.17;;;6.68;;
79227;SDS011;68658;46.174;11.254;2023-03-24T06:18:25;17.35;;;6.55;;
79227;SDS011;68658;46.174;11.254;2023-03-24T06:20:51;17.38;;;6.28;;
79227;SDS011;68658;46.174;11.254;2023-03-24T06:23:23;18.60;;;7.65;;
79227;SDS011;68658;46.174;11.254;2023-03-24T06:25:52;17.67;;;6.72;;
79227;SDS011;68658;46.174;11.254;2023-03-24T06:28:19;16.90;;;6.00;;
79227;SDS011;68658;46.174;11.254;2023-03-24T06:30:46;17.27;;;6.43;;
79227;SDS011;68658;46.174;11.254;2023-03-24T06:33:13;15.82;;;6.32;;
79227;SDS011;68658;46.174;11.254;2023-03-24T06:35:42;11.88;;;5.47;;
79227;SDS011;68658;46.174;11.254;2023-03-24T06:38:07;15.93;;;5.85;;
79227;SDS011;68658;46.174;11.254;2023-03-24T06:40:33;17.27;;;5.85;;
79227;SDS011;68658;46.174;11.254;2023-03-24T06:42:59;14.15;;;6.45;;
79227;SDS011;68658;46.174;11.254;2023-03-24T06:45:25;13.35;;;6.00;;
79227;SDS011;68658;46.174;11.254;2023-03-24T06:47:51;11.45;;;5.18;;
79227;SDS011;68658;46.174;11.254;2023-03-24T06:50:19;13.40;;;5.28;;
79227;SDS011;68658;46.174;11.254;2023-03-24T06:52:45;15.52;;;6.57;;
79227;SDS011;68658;46.174;11.254;2023-03-24T06:55:10;13.05;;;5.70;;
79227;SDS011;68658;46.174;11.254;2023-03-24T06:57:36;16.10;;;5.82;;
79227;SDS011;68658;46.174;11.254;2023-03-24T07:00:02;15.43;;;6.57;;
79227;SDS011;68658;46.174;11.254;2023-03-24T07:02:29;15.88;;;6.28;;
79227;SDS011;68658;46.174;11.254;2023-03-24T07:04:59;13.45;;;5.13;;
79227;SDS011;68658;46.174;11.254;2023-03-24T07:07:33;15.98;;;5.80;;
79227;SDS011;68658;46.174;11.254;2023-03-24T07:09:59;15.55;;;5.70;;
79227;SDS011;68658;46.174;11.254;2023-03-24T07:12:25;13.73;;;5.45;;
79227;SDS011;68658;46.174;11.254;2023-03-24T07:14:50;16.77;;;6.72;;
79227;SDS011;68658;46.174;11.254;2023-03-24T07:17:16;13.30;;;5.22;;
79227;SDS011;68658;46.174;11.254;2023-03-24T07:19:42;18.45;;;7.95;;
79227;SDS011;68658;46.174;11.254;2023-03-24T07:22:12;16.42;;;6.35;;
79227;SDS011;68658;46.174;11.254;2023-03-24T07:24:38;18.33;;;8.40;;
79227;SDS011;68658;46.174;11.254;2023-03-24T07:27:04;20.35;;;8.30;;
79227;SDS011;68658;46.174;11.254;2023-03-24T07:29:30;19.23;;;7.22;;
79227;SDS011;68658;46.174;11.254;2023-03-24T07:31:56;23.17;;;8.43;;
79227;SDS011;68658;46.174;11.254;2023-03-24T07:34:26;18.38;;;7.43;;
79227;SDS011;68658;46.174;11.254;2023-03-24T07:36:52;16.23;;;6.63;;
79227;SDS011;68658;46.174;11.254;2023-03-24T07:39:18;16.23;;;6.47;;
79227;SDS011;68658;46.174;11.254;2023-03-24T07:41:44;15.75;;;7.75;;
79227;SDS011;68658;46.174;11.254;2023-03-24T07:44:10;14.25;;;6.13;;
79227;SDS011;68658;46.174;11.254;2023-03-24T07:46:36;14.05;;;6.28;;
79227;SDS011;68658;46.174;11.254;2023-03-24T07:49:01;15.50;;;6.28;;
79227;SDS011;68658;46.174;11.254;2023-03-24T07:51:30;15.88;;;6.38;;
79227;SDS011;68658;46.174;11.254;2023-03-24T07:53:55;12.10;;;5.50;;
79227;SDS011;68658;46.174;11.254;2023-03-24T07:56:24;14.02;;;5.68;;
79227;SDS011;68658;46.174;11.254;2023-03-24T07:58:53;14.75;;;5.75;;
79227;SDS011;68658;46.174;11.254;2023-03-24T08:01:18;14.82;;;4.82;;
79227;SDS011;68658;46.174;11.254;2023-03-24T08:03:44;14.77;;;5.50;;
79227;SDS011;68658;46.174;11.254;2023-03-24T08:06:09;14.50;;;5.60;;
79227;SDS011;68658;46.174;11.254;2023-03-24T08:08:36;14.75;;;6.10;;
79227;SDS011;68658;46.174;11.254;2023-03-24T08:11:02;14.82;;;5.80;;
79227;SDS011;68658;46.174;11.254;2023-03-24T08:13:28;16.33;;;6.57;;
79227;SDS011;68658;46.174;11.254;2023-03-24T08:15:54;14.68;;;5.90;;
79227;SDS011;68658;46.174;11.254;2023-03-24T08:18:20;13.25;;;5.82;;
79227;SDS011;68658;46.174;11.254;2023-03-24T08:20:49;14.93;;;5.38;;
79227;SDS011;68658;46.174;11.254;2023-03-24T08:23:20;15.73;;;6.38;;
79227;SDS011;68658;46.174;11.254;2023-03-24T08:25:47;13.35;;;5.40;;
79227;SDS011;68658;46.174;11.254;2023-03-24T08:28:13;15.00;;;5.88;;
79227;SDS011;68658;46.174;11.254;2023-03-24T08:30:41;12.43;;;5.18;;
79227;SDS011;68658;46.174;11.254;2023-03-24T08:33:13;15.23;;;6.28;;
79227;SDS011;68658;46.174;11.254;2023-03-24T08:35:40;16.92;;;6.78;;
79227;SDS011;68658;46.174;11.254;2023-03-24T08:38:09;17.00;;;6.85;;
79227;SDS011;68658;46.174;11.254;2023-03-24T08:40:40;18.20;;;7.68;;
79227;SDS011;68658;46.174;11.254;2023-03-24T08:43:06;13.48;;;5.50;;
79227;SDS011;68658;46.174;11.254;2023-03-24T08:45:33;15.18;;;6.72;;
79227;SDS011;68658;46.174;11.254;2023-03-24T08:48:00;17.70;;;7.00;;
79227;SDS011;68658;46.174;11.254;2023-03-24T08:50:30;15.98;;;6.55;;
79227;SDS011;68658;46.174;11.254;2023-03-24T08:52:59;14.95;;;6.15;;
79227;SDS011;68658;46.174;11.254;2023-03-24T08:55:25;22.00;;;7.10;;
79227;SDS011;68658;46.174;11.254;2023-03-24T08:57:51;19.98;;;7.97;;
79227;SDS011;68658;46.174;11.254;2023-03-24T09:00:17;20.10;;;7.10;;
79227;SDS011;68658;46.174;11.254;2023-03-24T09:02:45;17.08;;;6.50;;
79227;SDS011;68658;46.174;11.254;2023-03-24T09:05:12;15.50;;;6.70;;
79227;SDS011;68658;46.174;11.254;2023-03-24T09:07:39;20.00;;;7.70;;
79227;SDS011;68658;46.174;11.254;2023-03-24T09:10:06;14.20;;;6.88;;
79227;SDS011;68658;46.174;11.254;2023-03-24T09:12:33;20.15;;;7.35;;
79227;SDS011;68658;46.174;11.254;2023-03-24T09:14:59;16.65;;;7.25;;
79227;SDS011;68658;46.174;11.254;2023-03-24T09:17:30;16.48;;;7.80;;
79227;SDS011;68658;46.174;11.254;2023-03-24T09:19:56;25.10;;;10.77;;
79227;SDS011;68658;46.174;11.254;2023-03-24T09:22:24;28.48;;;11.23;;
79227;SDS011;68658;46.174;11.254;2023-03-24T09:24:50;14.55;;;6.60;;
79227;SDS011;68658;46.174;11.254;2023-03-24T09:27:15;29.05;;;12.73;;
79227;SDS011;68658;46.174;11.254;2023-03-24T09:29:41;29.15;;;12.25;;
79227;SDS011;68658;46.174;11.254;2023-03-24T09:32:10;26.65;;;10.70;;
79227;SDS011;68658;46.174;11.254;2023-03-24T09:34:35;26.20;;;11.43;;
79227;SDS011;68658;46.174;11.254;2023-03-24T09:37:02;24.73;;;11.27;;
79227;SDS011;68658;46.174;11.254;2023-03-24T09:39:29;28.08;;;11.52;;
79227;SDS011;68658;46.174;11.254;2023-03-24T09:41:54;23.40;;;8.95;;
79227;SDS011;68658;46.174;11.254;2023-03-24T09:46:47;19.47;;;6.10;;
79227;SDS011;68658;46.174;11.254;2023-03-24T09:49:20;14.43;;;6.28;;
79227;SDS011;68658;46.174;11.254;2023-03-24T09:51:48;15.15;;;6.57;;
79227;SDS011;68658;46.174;11.254;2023-03-24T09:54:24;13.85;;;6.90;;
79227;SDS011;68658;46.174;11.254;2023-03-24T09:56:55;18.67;;;6.45;;
79227;SDS011;68658;46.174;11.254;2023-03-24T10:01:52;18.67;;;6.85;;
79227;SDS011;68658;46.174;11.254;2023-03-24T10:04:19;16.33;;;6.85;;
79227;SDS011;68658;46.174;11.254;2023-03-24T10:06:47;16.75;;;7.55;;
79227;SDS011;68658;46.174;11.254;2023-03-24T10:22:49;24.30;;;8.27;;
79227;SDS011;68658;46.174;11.254;2023-03-24T10:25:44;27.48;;;9.73;;
79227;SDS011;68658;46.174;11.254;2023-03-24T10:28:27;22.15;;;9.43;;
79227;SDS011;68658;46.174;11.254;2023-03-24T10:33:28;22.08;;;8.68;;
79227;SDS011;68658;46.174;11.254;2023-03-24T10:35:56;24.17;;;8.95;;
79227;SDS011;68658;46.174;11.254;2023-03-24T10:38:26;25.92;;;9.43;;
79227;SDS011;68658;46.174;11.254;2023-03-24T10:40:52;26.45;;;10.23;;
79227;SDS011;68658;46.174;11.254;2023-03-24T10:43:18;26.88;;;10.60;;
79227;SDS011;68658;46.174;11.254;2023-03-24T10:45:47;26.17;;;9.32;;
79227;SDS011;68658;46.174;11.254;2023-03-24T10:51:18;22.45;;;9.38;;
79227;SDS011;68658;46.174;11.254;2023-03-24T10:56:36;27.35;;;9.57;;
79227;SDS011;68658;46.174;11.254;2023-03-24T10:59:26;24.08;;;10.30;;
79227;SDS011;68658;46.174;11.254;2023-03-24T11:07:19;31.25;;;10.25;;
79227;SDS011;68658;46.174;11.254;2023-03-24T11:10:01;25.42;;;9.52;;
79227;SDS011;68658;46.174;11.254;2023-03-24T11:12:31;20.38;;;9.15;;
79227;SDS011;68658;46.174;11.254;2023-03-24T11:15:03;23.02;;;10.20;;
79227;SDS011;68658;46.174;11.254;2023-03-24T11:17:46;27.75;;;10.60;;
79227;SDS011;68658;46.174;11.254;2023-03-24T11:20:24;24.58;;;9.45;;
79227;SDS011;68658;46.174;11.254;2023-03-24T11:26:07;25.55;;;10.40;;
79227;SDS011;68658;46.174;11.254;2023-03-24T11:28:39;24.85;;;9.75;;
79227;SDS011;68658;46.174;11.254;2023-03-24T11:31:09;21.92;;;9.48;;
79227;SDS011;68658;46.174;11.254;2023-03-24T11:36:36;26.98;;;10.13;;
79227;SDS011;68658;46.174;11.254;2023-03-24T11:44:51;25.73;;;10.55;;
79227;SDS011;68658;46.174;11.254;2023-03-24T11:52:40;27.25;;;10.45;;
79227;SDS011;68658;46.174;11.254;2023-03-24T11:55:15;24.73;;;11.70;;
79227;SDS011;68658;46.174;11.254;2023-03-24T12:00:41;23.80;;;10.50;;
79227;SDS011;68658;46.174;11.254;2023-03-24T12:03:34;28.83;;;10.63;;
79227;SDS011;68658;46.174;11.254;2023-03-24T12:11:38;24.25;;;10.63;;
79227;SDS011;68658;46.174;11.254;2023-03-24T12:14:18;22.58;;;9.70;;
79227;SDS011;68658;46.174;11.254;2023-03-24T12:17:00;24.58;;;10.27;;
79227;SDS011;68658;46.174;11.254;2023-03-24T12:22:15;27.65;;;10.30;;
79227;SDS011;68658;46.174;11.254;2023-03-24T12:30:37;24.90;;;9.82;;
79227;SDS011;68658;46.174;11.254;2023-03-24T12:33:18;23.92;;;10.00;;
79227;SDS011;68658;46.174;11.254;2023-03-24T12:55:42;23.15;;;9.55;;
79227;SDS011;68658;46.174;11.254;2023-03-24T12:58:36;22.48;;;9.95;;
79227;SDS011;68658;46.174;11.254;2023-03-24T13:01:12;30.85;;;10.93;;
79227;SDS011;68658;46.174;11.254;2023-03-24T13:12:17;22.15;;;9.38;;
79227;SDS011;68658;46.174;11.254;2023-03-24T13:14:50;23.98;;;10.77;;
79227;SDS011;68658;46.174;11.254;2023-03-24T13:17:29;24.65;;;10.90;;
79227;SDS011;68658;46.174;11.254;2023-03-24T13:19:57;23.58;;;10.60;;
79227;SDS011;68658;46.174;11.254;2023-03-24T13:22:25;24.65;;;11.25;;
79227;SDS011;68658;46.174;11.254;2023-03-24T13:24:53;23.40;;;10.05;;
79227;SDS011;68658;46.174;11.254;2023-03-24T13:27:22;25.08;;;9.68;;
79227;SDS011;68658;46.174;11.254;2023-03-24T13:37:52;26.42;;;10.55;;
79227;SDS011;68658;46.174;11.254;2023-03-24T13:40:24;28.05;;;11.32;;
79227;SDS011;68658;46.174;11.254;2023-03-24T13:42:59;26.10;;;11.07;;
79227;SDS011;68658;46.174;11.254;2023-03-24T13:48:18;22.25;;;9.27;;
79227;SDS011;68658;46.174;11.254;2023-03-24T13:50:52;21.15;;;8.75;;
79227;SDS011;68658;46.174;11.254;2023-03-24T13:53:29;25.42;;;9.02;;
79227;SDS011;68658;46.174;11.254;2023-03-24T13:56:09;21.75;;;8.13;;
79227;SDS011;68658;46.174;11.254;2023-03-24T13:58:44;27.05;;;9.85;;
79227;SDS011;68658;46.174;11.254;2023-03-24T14:09:16;25.92;;;10.15;;
79227;SDS011;68658;46.174;11.254;2023-03-24T14:12:19;20.48;;;8.63;;
79227;SDS011;68658;46.174;11.254;2023-03-24T14:15:18;20.08;;;8.43;;
79227;SDS011;68658;46.174;11.254;2023-03-24T14:17:41;20.85;;;8.70;;
79227;SDS011;68658;46.174;11.254;2023-03-24T14:22:39;22.20;;;8.38;;
79227;SDS011;68658;46.174;11.254;2023-03-24T14:27:41;24.48;;;8.52;;
79227;SDS011;68658;46.174;11.254;2023-03-24T14:30:27;19.25;;;7.95;;
79227;SDS011;68658;46.174;11.254;2023-03-24T14:32:58;19.83;;;8.43;;
79227;SDS011;68658;46.174;11.254;2023-03-24T14:35:36;20.58;;;8.45;;
79227;SDS011;68658;46.174;11.254;2023-03-24T14:40:49;21.05;;;7.80;;
79227;SDS011;68658;46.174;11.254;2023-03-24T14:48:56;18.42;;;8.38;;
79227;SDS011;68658;46.174;11.254;2023-03-24T14:54:03;17.20;;;8.25;;
79227;SDS011;68658;46.174;11.254;2023-03-24T14:56:35;22.85;;;7.25;;
79227;SDS011;68658;46.174;11.254;2023-03-24T14:59:07;20.38;;;7.20;;
79227;SDS011;68658;46.174;11.254;2023-03-24T15:01:41;18.77;;;7.22;;
79227;SDS011;68658;46.174;11.254;2023-03-24T15:04:12;18.90;;;7.43;;
79227;SDS011;68658;46.174;11.254;2023-03-24T15:06:44;17.40;;;6.90;;
79227;SDS011;68658;46.174;11.254;2023-03-24T15:09:11;15.80;;;5.72;;
79227;SDS011;68658;46.174;11.254;2023-03-24T15:11:39;13.25;;;5.80;;
79227;SDS011;68658;46.174;11.254;2023-03-24T15:14:06;12.38;;;4.47;;
79227;SDS011;68658;46.174;11.254;2023-03-24T15:16:40;14.55;;;5.60;;
79227;SDS011;68658;46.174;11.254;2023-03-24T15:19:14;15.98;;;5.78;;
79227;SDS011;68658;46.174;11.254;2023-03-24T15:22:08;11.48;;;4.22;;
79227;SDS011;68658;46.174;11.254;2023-03-24T15:24:35;14.90;;;5.43;;
79227;SDS011;68658;46.174;11.254;2023-03-24T15:29:30;10.52;;;4.68;;
79227;SDS011;68658;46.174;11.254;2023-03-24T15:31:56;11.40;;;4.82;;
79227;SDS011;68658;46.174;11.254;2023-03-24T15:34:23;13.05;;;4.40;;
79227;SDS011;68658;46.174;11.254;2023-03-24T15:36:55;11.02;;;3.20;;
79227;SDS011;68658;46.174;11.254;2023-03-24T15:39:35;11.10;;;4.00;;
79227;SDS011;68658;46.174;11.254;2023-03-24T15:42:06;9.27;;;3.63;;
79227;SDS011;68658;46.174;11.254;2023-03-24T15:44:38;11.55;;;4.13;;
79227;SDS011;68658;46.174;11.254;2023-03-24T15:47:09;10.80;;;4.22;;
79227;SDS011;68658;46.174;11.254;2023-03-24T15:52:36;7.38;;;2.50;;
79227;SDS011;68658;46.174;11.254;2023-03-24T15:55:36;9.63;;;1.95;;
79227;SDS011;68658;46.174;11.254;2023-03-24T15:57:56;9.52;;;2.50;;
79227;SDS011;68658;46.174;11.254;2023-03-24T16:00:25;6.75;;;2.45;;
79227;SDS011;68658;46.174;11.254;2023-03-24T16:02:53;6.00;;;2.17;;
79227;SDS011;68658;46.174;11.254;2023-03-24T16:13:27;5.93;;;1.48;;
79227;SDS011;68658;46.174;11.254;2023-03-24T16:16:06;6.07;;;1.73;;
79227;SDS011;68658;46.174;11.254;2023-03-24T16:18:45;3.05;;;0.75;;
79227;SDS011;68658;46.174;11.254;2023-03-24T16:21:13;5.03;;;2.28;;
79227;SDS011;68658;46.174;11.254;2023-03-24T16:23:38;9.25;;;2.10;;
79227;SDS011;68658;46.174;11.254;2023-03-24T16:26:08;7.57;;;2.10;;
79227;SDS011;68658;46.174;11.254;2023-03-24T16:28:37;4.40;;;1.40;;
79227;SDS011;68658;46.174;11.254;2023-03-24T16:31:03;7.20;;;1.88;;
79227;SDS011;68658;46.174;11.254;2023-03-24T16:33:29;3.10;;;1.13;;
79227;SDS011;68658;46.174;11.254;2023-03-24T16:35:55;4.13;;;1.77;;
79227;SDS011;68658;46.174;11.254;2023-03-24T16:38:21;5.72;;;1.50;;
79227;SDS011;68658;46.174;11.254;2023-03-24T16:40:53;5.20;;;1.40;;
79227;SDS011;68658;46.174;11.254;2023-03-24T16:43:20;3.55;;;1.08;;
79227;SDS011;68658;46.174;11.254;2023-03-24T16:45:46;5.93;;;1.20;;
79227;SDS011;68658;46.174;11.254;2023-03-24T16:48:13;3.85;;;1.10;;
79227;SDS011;68658;46.174;11.254;2023-03-24T16:50:43;4.15;;;1.45;;
79227;SDS011;68658;46.174;11.254;2023-03-24T16:55:41;4.43;;;1.58;;
79227;SDS011;68658;46.174;11.254;2023-03-24T16:58:09;4.07;;;1.23;;
79227;SDS011;68658;46.174;11.254;2023-03-24T17:00:37;3.10;;;1.05;;
79227;SDS011;68658;46.174;11.254;2023-03-24T17:03:03;2.33;;;0.90;;
79227;SDS011;68658;46.174;11.254;2023-03-24T17:05:38;6.05;;;1.65;;
79227;SDS011;68658;46.174;11.254;2023-03-24T17:08:07;4.68;;;1.33;;
79227;SDS011;68658;46.174;11.254;2023-03-24T17:10:34;3.28;;;1.23;;
79227;SDS011;68658;46.174;11.254;2023-03-24T17:13:00;7.90;;;1.52;;
79227;SDS011;68658;46.174;11.254;2023-03-24T17:15:27;6.97;;;1.95;;
79227;SDS011;68658;46.174;11.254;2023-03-24T17:17:54;6.22;;;1.73;;
79227;SDS011;68658;46.174;11.254;2023-03-24T17:20:20;4.82;;;1.63;;
79227;SDS011;68658;46.174;11.254;2023-03-24T17:22:48;5.03;;;1.63;;
79227;SDS011;68658;46.174;11.254;2023-03-24T17:25:16;3.80;;;1.45;;
79227;SDS011;68658;46.174;11.254;2023-03-24T17:27:46;7.53;;;2.78;;
79227;SDS011;68658;46.174;11.254;2023-03-24T17:30:16;12.20;;;3.45;;
79227;SDS011;68658;46.174;11.254;2023-03-24T17:32:44;10.70;;;3.22;;
79227;SDS011;68658;46.174;11.254;2023-03-24T17:35:12;11.98;;;3.38;;
79227;SDS011;68658;46.174;11.254;2023-03-24T17:37:40;9.77;;;3.60;;
79227;SDS011;68658;46.174;11.254;2023-03-24T17:40:06;9.43;;;3.78;;
79227;SDS011;68658;46.174;11.254;2023-03-24T17:42:35;11.70;;;4.70;;
79227;SDS011;68658;46.174;11.254;2023-03-24T17:45:01;17.25;;;6.68;;
79227;SDS011;68658;46.174;11.254;2023-03-24T17:47:28;22.25;;;8.90;;
79227;SDS011;68658;46.174;11.254;2023-03-24T17:49:54;20.63;;;8.40;;
79227;SDS011;68658;46.174;11.254;2023-03-24T17:52:20;25.65;;;9.73;;
79227;SDS011;68658;46.174;11.254;2023-03-24T17:54:46;21.20;;;9.27;;
79227;SDS011;68658;46.174;11.254;2023-03-24T17:57:12;22.73;;;9.85;;
79227;SDS011;68658;46.174;11.254;2023-03-24T17:59:38;27.70;;;10.70;;
79227;SDS011;68658;46.174;11.254;2023-03-24T18:02:08;23.48;;;10.15;;
79227;SDS011;68658;46.174;11.254;2023-03-24T18:04:36;24.77;;;11.43;;
79227;SDS011;68658;46.174;11.254;2023-03-24T18:07:01;22.23;;;9.45;;
79227;SDS011;68658;46.174;11.254;2023-03-24T18:09:30;21.63;;;9.82;;